• Join FlightAware (Why Join?)
  • Login
  • US Flag 
10:27AM EST


 

Airport Tracker/Info


-or-


 

Live Flight TrackerFlight Track Log ✈ SLI2114 ✈ 19-May-2013 ✈ MMHO / HMO - MMML / MXL

Flight Track Log - Related Links

Times and Time Zones

All times are in EDT time to prevent confusion due to time zone crossing. See the SLI2114 flight status page for this flight to view local times or setup timezone preferences in your user account.

Time Position Orientation Groundspeed Altitude Reporting Facility
EDT Latitude Longitude Course Direction KTS MPH feet Rate Location/Type
11:54PM 29.7532 -111.7932 316° Northwest  Level Estimated
11:55PM 29.8035 -111.8510 315° West  Level Estimated
11:56PM 29.8539 -111.9088 315° West  Level Estimated
11:57PM 29.9042 -111.9666 315° West  Level Estimated
11:58PM 29.9545 -112.0246 315° West  Level Estimated
11:59PM 30.0048 -112.0825 315° West  Level Estimated
12:00AM 30.0551 -112.1405 315° West  Level Estimated
12:01AM 30.1053 -112.1986 315° West  Level Estimated
12:02AM 30.1556 -112.2568 315° West  Level Estimated
12:03AM 30.2057 -112.3150 315° West  Level Estimated
12:04AM 30.2559 -112.3733 315° West  Level Estimated
12:05AM 30.3060 -112.4316 315° West  Level Estimated
12:06AM 30.3561 -112.4900 315° West  Level Estimated
12:07AM 30.4062 -112.5484 315° West  Level Estimated
12:08AM 30.4563 -112.6069 315° West  Level Estimated
12:09AM 30.5063 -112.6655 315° West  Level Estimated
12:10AM 30.5563 -112.7242 315° West  Level Estimated
12:11AM 30.6063 -112.7828 315° West  Level Estimated
12:12AM 30.6562 -112.8416 315° West  Level Estimated
12:13AM 30.7062 -112.9004 315° West  Level Estimated
12:14AM 30.7561 -112.9593 315° West  Level Estimated
12:15AM 30.8059 -113.0182 315° West  Level Estimated
12:16AM 30.8558 -113.0772 315° West  Level Estimated
12:17AM 30.9056 -113.1362 315° West  Level Estimated
12:18AM 30.9554 -113.1954 314° West  Level Estimated
12:19AM 31.0051 -113.2545 314° West  Level Estimated
12:20AM 31.0549 -113.3138 314° West  Level Estimated
12:21AM 31.1046 -113.3731 314° West  Level Estimated
12:22AM 31.1543 -113.4324 314° West  Level Estimated
12:23AM 31.2039 -113.4919 314° West  Level Estimated
12:24AM 31.2535 -113.5514 314° West  Level Estimated
12:25AM 31.3032 -113.6109 314° West  Level Estimated
12:26AM 31.3527 -113.6705 314° West  Level Estimated
12:27AM 31.4023 -113.7302 314° West  Level Estimated
12:28AM 31.4518 -113.7899 314° West  Level Estimated
12:29AM 31.5013 -113.8497 314° West  Level Estimated
12:30AM 31.5507 -113.9096 314° West  Level Estimated
12:31AM 31.6002 -113.9695 314° West  Level Estimated
12:32AM 31.6496 -114.0295 314° West  Level Estimated
12:33AM 31.6990 -114.0896 314° West  Level Estimated
12:34AM 31.7483 -114.1497 314° West  Level Estimated
12:35AM 31.7976 -114.2099 314° West  Level Estimated
12:36AM 31.8469 -114.2701 314° West  Level Estimated
12:37AM 31.8962 -114.3304 314° West  Level Estimated
12:38AM 31.9454 -114.3908 314° West  Level Estimated
12:39AM 31.9946 -114.4513 314° West  Level Estimated
12:40AM 32.0438 -114.5118 314° West  Level Estimated
12:41AM 32.0930 -114.5723 314° West  Level Estimated
12:42AM 32.1421 -114.6330 314° West  Level Estimated
12:43AM 32.1912 -114.6937 314° West  Level Estimated
12:44AM 32.2402 -114.7544 314° West  Level Estimated
12:45AM 32.2893 -114.8153 314° West  Level Estimated
12:46AM 32.3383 -114.8762 314° West  Level Estimated
12:47AM 32.3873 -114.9371 314° West  Level Estimated
12:48AM 32.4362 -114.9982 314° West  Level Estimated
12:49AM 32.4851 -115.0593 314° West  Level Estimated
12:50AM 32.5340 -115.1205 313° West  Level Estimated
12:51AM 32.5829 -115.1817 313° West  Level Estimated
12:52AM 32.6306 -115.2416 313° West  Level Estimated
12:53AM 32.6306 -115.2416 32° Northeast  Level Estimated
12:54AM 32.6306 -115.2416 32° Northeast  Level Estimated
12:55AM 32.6306 -115.2416 32° Northeast  Level Estimated
12:56AM 32.6306 -115.2416 32° Northeast  Level Estimated
12:57AM 32.6306 -115.2416 32° Northeast  Level Estimated
12:58AM 32.6306 -115.2416 32° Northeast  Level Estimated
12:59AM 32.6306 -115.2416 32° Northeast  Level Estimated
01:00AM 32.6306 -115.2416 32° Northeast  Level Estimated
01:01AM 32.6306 -115.2416 32° Northeast  Level Estimated
01:02AM 32.6306 -115.2416 32° Northeast  Level Estimated
01:03AM 32.6306 -115.2416 32° Northeast  Level Estimated